createdAt,value
2019-04-26T00:00:13.872Z,13.17
2019-04-26T00:04:24.074Z,14.07
2019-04-26T00:08:33.003Z,17.93
2019-04-26T00:12:49.547Z,17.00
2019-04-26T00:17:23.009Z,16.30
2019-04-26T00:21:31.453Z,16.63
2019-04-26T00:25:39.989Z,17.90
2019-04-26T00:29:47.687Z,15.10
2019-04-26T00:33:55.352Z,15.67
2019-04-26T00:38:03.418Z,18.90
2019-04-26T00:42:12.175Z,17.33
2019-04-26T00:46:23.662Z,23.97
2019-04-26T00:50:33.287Z,23.03
2019-04-26T00:54:42.024Z,18.73
2019-04-26T00:58:50.251Z,19.20
2019-04-26T01:02:58.353Z,28.23
2019-04-26T01:07:06.181Z,24.00
2019-04-26T01:11:16.178Z,22.73
2019-04-26T01:15:26.635Z,24.20
2019-04-26T01:19:35.628Z,22.23
2019-04-26T01:23:46.639Z,25.70
2019-04-26T01:27:54.979Z,16.37
2019-04-26T01:32:08.276Z,18.80
2019-04-26T01:36:18.261Z,15.67
2019-04-26T01:40:28.360Z,19.03
2019-04-26T01:44:46.235Z,17.67
2019-04-26T01:49:06.567Z,13.10
2019-04-26T01:53:14.279Z,20.87
2019-04-26T01:57:25.381Z,18.87
2019-04-26T02:01:55.047Z,14.93
2019-04-26T02:06:03.778Z,13.87
2019-04-26T02:10:14.091Z,14.70
2019-04-26T02:14:22.664Z,17.03
2019-04-26T02:18:33.604Z,15.33
2019-04-26T02:23:13.691Z,15.33
2019-04-26T02:27:24.886Z,18.60
2019-04-26T02:31:37.234Z,15.13
2019-04-26T02:35:43.951Z,19.43
2019-04-26T02:39:52.794Z,23.77
2019-04-26T02:44:03.604Z,21.60
2019-04-26T02:48:35.797Z,18.40
2019-04-26T02:53:16.626Z,22.37
2019-04-26T02:57:36.650Z,20.90
2019-04-26T03:01:45.578Z,19.27
2019-04-26T03:05:55.304Z,20.40
2019-04-26T03:10:03.952Z,23.17
2019-04-26T03:14:34.481Z,29.73
2019-04-26T03:18:55.696Z,40.13
2019-04-26T03:23:41.335Z,24.63
2019-04-26T03:28:15.041Z,25.83
2019-04-26T03:32:54.162Z,26.57
2019-04-26T03:37:21.999Z,21.07
2019-04-26T03:42:06.991Z,26.10
2019-04-26T03:46:45.160Z,24.87
2019-04-26T03:51:05.264Z,23.23
2019-04-26T03:55:51.931Z,33.20
2019-04-26T04:00:28.637Z,38.43
2019-04-26T04:04:46.738Z,42.40
2019-04-26T04:09:03.238Z,49.67
2019-04-26T04:13:40.872Z,31.73
2019-04-26T04:17:59.970Z,21.83
2019-04-26T04:22:10.194Z,21.87
2019-04-26T04:26:23.525Z,20.60
2019-04-26T04:31:15.063Z,17.93
2019-04-26T04:35:25.837Z,17.20
2019-04-26T04:39:46.486Z,16.67
2019-04-26T04:44:11.859Z,16.80
2019-04-26T04:48:35.115Z,19.87
2019-04-26T04:53:30.916Z,16.37
2019-04-26T04:58:04.833Z,19.13
2019-04-26T05:02:27.480Z,17.20
2019-04-26T05:07:06.769Z,16.80
2019-04-26T05:11:20.895Z,13.90
2019-04-26T05:15:51.073Z,16.20
2019-04-26T05:20:15.719Z,16.47
2019-04-26T05:24:42.350Z,18.27
2019-04-26T05:29:19.548Z,12.43
2019-04-26T05:34:08.212Z,14.83
2019-04-26T05:38:51.205Z,13.23
2019-04-26T05:43:39.744Z,15.57
2019-04-26T05:48:11.982Z,15.57
2019-04-26T05:53:05.337Z,12.00
2019-04-26T05:57:56.787Z,12.10
2019-04-26T06:02:59.074Z,10.97
2019-04-26T06:07:32.395Z,9.77
2019-04-26T06:11:54.633Z,18.40
2019-04-26T06:16:21.796Z,13.57
2019-04-26T06:20:55.917Z,10.30
2019-04-26T06:25:32.669Z,11.43
2019-04-26T06:30:01.345Z,11.00
2019-04-26T06:34:20.538Z,15.17
2019-04-26T06:39:28.420Z,11.83
2019-04-26T06:43:44.909Z,12.13
2019-04-26T06:48:01.840Z,16.00
2019-04-26T06:52:13.794Z,12.33
2019-04-26T06:56:44.239Z,13.83
2019-04-26T07:01:16.299Z,15.13
2019-04-26T07:05:29.422Z,13.83
2019-04-26T07:09:59.095Z,13.07
2019-04-26T07:14:48.743Z,11.90
2019-04-26T07:19:19.800Z,9.80
2019-04-26T07:24:05.509Z,12.07
2019-04-26T07:28:49.165Z,9.17
2019-04-26T07:33:33.884Z,11.47
2019-04-26T07:38:11.204Z,10.40
2019-04-26T07:43:03.571Z,13.63
2019-04-26T07:48:19.634Z,8.50
2019-04-26T07:53:22.993Z,10.63
2019-04-26T07:58:26.628Z,9.70
2019-04-26T08:03:00.219Z,17.60
2019-04-26T08:07:13.562Z,10.40
2019-04-26T08:11:29.461Z,11.60
2019-04-26T08:16:08.841Z,10.97
2019-04-26T08:20:39.007Z,7.13
2019-04-26T08:24:49.425Z,7.77
2019-04-26T08:29:00.595Z,7.70
2019-04-26T08:33:14.704Z,4.97
2019-04-26T08:37:36.615Z,20.27
2019-04-26T08:41:44.793Z,10.87
2019-04-26T08:46:26.821Z,5.60
2019-04-26T08:50:42.181Z,4.87
2019-04-26T08:54:54.921Z,6.30
2019-04-26T08:59:10.058Z,10.43
2019-04-26T09:03:51.624Z,8.73
2019-04-26T09:08:03.990Z,5.60
2019-04-26T09:12:23.143Z,3.67
2019-04-26T09:16:28.968Z,5.87
2019-04-26T09:20:38.550Z,7.97
2019-04-26T09:25:02.916Z,5.03
2019-04-26T09:29:40.016Z,5.37
2019-04-26T09:33:51.135Z,3.87
2019-04-26T09:37:59.105Z,6.87
2019-04-26T09:42:14.265Z,6.43
2019-04-26T09:46:44.455Z,4.27
2019-04-26T09:50:53.919Z,7.63
2019-04-26T09:55:01.836Z,6.23
2019-04-26T09:59:09.826Z,4.40
2019-04-26T10:03:17.648Z,4.37
2019-04-26T10:07:26.021Z,4.70
2019-04-26T10:11:43.581Z,6.10
2019-04-26T10:16:11.765Z,8.03
2019-04-26T10:20:19.796Z,4.70
2019-04-26T10:24:27.629Z,4.87
2019-04-26T10:28:35.422Z,5.63
2019-04-26T10:32:43.454Z,6.23
2019-04-26T10:36:53.226Z,5.07
2019-04-26T10:41:01.125Z,7.27
2019-04-26T10:45:14.528Z,9.73
2019-04-26T10:49:40.995Z,5.73
2019-04-26T10:53:56.877Z,6.90
2019-04-26T10:58:15.015Z,5.27
2019-04-26T11:02:23.689Z,6.27
2019-04-26T11:06:31.574Z,7.17
2019-04-26T11:10:48.407Z,6.10
2019-04-26T11:14:49.251Z,9.43
2019-04-26T11:19:01.220Z,6.37
2019-04-26T11:23:08.118Z,5.77
2019-04-26T11:27:17.807Z,9.43
2019-04-26T11:31:27.582Z,7.70
2019-04-26T11:35:35.706Z,7.20
2019-04-26T11:39:43.400Z,4.20
2019-04-26T11:43:52.963Z,5.20
2019-04-26T11:48:03.283Z,9.53
2019-04-26T11:52:11.725Z,7.30
2019-04-26T11:56:20.095Z,5.43
2019-04-26T12:00:32.593Z,6.40
2019-04-26T12:04:59.962Z,5.37
2019-04-26T12:09:19.450Z,4.97
2019-04-26T12:13:27.321Z,4.37
2019-04-26T12:17:36.841Z,8.03
2019-04-26T12:21:44.902Z,4.77
2019-04-26T12:25:54.447Z,3.17
2019-04-26T12:30:02.170Z,3.17
2019-04-26T12:34:14.081Z,5.33
2019-04-26T12:38:20.230Z,3.87
2019-04-26T12:42:28.246Z,4.10
2019-04-26T12:46:44.988Z,3.77
2019-04-26T12:50:52.806Z,6.20
2019-04-26T12:55:00.601Z,5.07
2019-04-26T12:59:08.292Z,3.80
2019-04-26T13:03:20.382Z,5.87
2019-04-26T13:07:26.360Z,6.87
2019-04-26T13:11:52.837Z,4.53
2019-04-26T13:16:09.629Z,6.10
2019-04-26T13:20:17.481Z,3.47
2019-04-26T13:24:25.163Z,5.17
2019-04-26T13:28:32.973Z,4.37
2019-04-26T13:32:40.570Z,4.17
2019-04-26T13:36:52.757Z,4.57
2019-04-26T13:41:04.805Z,3.43
2019-04-26T13:45:27.173Z,5.90
2019-04-26T13:49:42.444Z,7.13
2019-04-26T13:53:50.141Z,8.23
2019-04-26T13:57:57.962Z,3.57
2019-04-26T14:02:11.663Z,4.77
2019-04-26T14:06:15.620Z,3.63
2019-04-26T14:10:23.464Z,7.37
2019-04-26T14:14:34.143Z,4.00
2019-04-26T14:18:42.126Z,3.50
2019-04-26T14:22:59.202Z,4.70
2019-04-26T14:27:25.877Z,6.87
2019-04-26T14:31:35.422Z,4.47
2019-04-26T14:35:46.228Z,4.17
2019-04-26T14:39:55.350Z,9.07
2019-04-26T14:44:14.804Z,4.67
2019-04-26T14:48:20.563Z,6.73
2019-04-26T14:52:24.086Z,11.40
2019-04-26T14:56:33.167Z,5.47
2019-04-26T15:00:43.867Z,8.13
2019-04-26T15:04:58.163Z,8.90
2019-04-26T15:09:16.969Z,5.30
2019-04-26T15:13:20.796Z,33.07
2019-04-26T15:17:26.767Z,12.73
2019-04-26T15:21:34.595Z,9.73
2019-04-26T15:25:48.303Z,7.50
2019-04-26T15:29:52.740Z,7.93
2019-04-26T15:34:00.461Z,8.73
2019-04-26T15:38:08.706Z,4.73
2019-04-26T15:42:30.727Z,8.63
2019-04-26T15:47:03.253Z,9.37
2019-04-26T15:51:10.430Z,11.53
2019-04-26T15:55:18.196Z,5.03
2019-04-26T15:59:26.226Z,9.63
2019-04-26T16:03:36.800Z,8.77
2019-04-26T16:07:43.473Z,9.27
2019-04-26T16:11:55.296Z,9.07
2019-04-26T16:16:03.817Z,4.97
2019-04-26T16:20:13.631Z,12.57
2019-04-26T16:24:24.184Z,12.90
2019-04-26T16:28:38.271Z,6.40
2019-04-26T16:33:08.628Z,8.10
2019-04-26T16:37:21.708Z,9.47
2019-04-26T16:41:27.139Z,9.20
2019-04-26T16:45:37.228Z,6.53
2019-04-26T16:49:46.666Z,12.13
2019-04-26T16:54:06.802Z,11.93
2019-04-26T16:58:04.624Z,10.83
2019-04-26T17:02:13.338Z,11.20
2019-04-26T17:06:23.268Z,13.47
2019-04-26T17:10:32.746Z,7.13
2019-04-26T17:14:45.355Z,12.90
2019-04-26T17:18:50.326Z,9.50
2019-04-26T17:23:30.132Z,9.30
2019-04-26T17:27:35.105Z,9.70
2019-04-26T17:31:43.350Z,12.50
2019-04-26T17:35:51.680Z,11.60
2019-04-26T17:40:00.860Z,11.37
2019-04-26T17:44:11.210Z,11.17
2019-04-26T17:48:18.835Z,11.90
2019-04-26T17:52:31.226Z,14.37
2019-04-26T17:56:39.580Z,15.83
2019-04-26T18:00:47.539Z,16.33
2019-04-26T18:05:00.618Z,15.40
2019-04-26T18:09:05.505Z,16.93
2019-04-26T18:13:16.378Z,19.37
2019-04-26T18:17:41.758Z,15.70
2019-04-26T18:22:07.508Z,12.70
2019-04-26T18:26:17.360Z,11.23
2019-04-26T18:30:26.727Z,14.30
2019-04-26T18:34:40.101Z,14.20
2019-04-26T18:38:48.473Z,12.07
2019-04-26T18:42:55.124Z,14.67
2019-04-26T18:47:14.657Z,11.63
2019-04-26T18:51:23.628Z,9.37
2019-04-26T18:55:34.391Z,13.97
2019-04-26T18:59:44.762Z,15.13
2019-04-26T19:03:53.936Z,13.27
2019-04-26T19:08:02.622Z,7.63
2019-04-26T19:12:11.947Z,13.53
2019-04-26T19:16:41.791Z,13.93
2019-04-26T19:21:03.737Z,12.97
2019-04-26T19:25:20.907Z,10.67
2019-04-26T19:29:29.294Z,13.03
2019-04-26T19:33:31.483Z,13.33
2019-04-26T19:37:39.703Z,9.30
2019-04-26T19:41:47.415Z,11.50
2019-04-26T19:46:25.219Z,13.57
2019-04-26T19:50:55.551Z,13.87
2019-04-26T19:55:13.232Z,12.90
2019-04-26T19:59:23.308Z,8.97
2019-04-26T20:03:32.064Z,14.07
2019-04-26T20:07:41.602Z,12.27
2019-04-26T20:11:51.409Z,15.67
2019-04-26T20:16:02.669Z,8.47
2019-04-26T20:20:18.893Z,7.73
2019-04-26T20:24:19.560Z,6.30
2019-04-26T20:28:29.744Z,13.47
2019-04-26T20:32:38.639Z,12.33
2019-04-26T20:36:47.774Z,9.73
2019-04-26T20:40:55.696Z,8.70
2019-04-26T20:45:04.461Z,9.60
2019-04-26T20:49:12.953Z,10.57
2019-04-26T20:53:21.716Z,9.90
2019-04-26T20:57:31.343Z,9.63
2019-04-26T21:01:43.560Z,14.20
2019-04-26T21:05:52.826Z,11.20
2019-04-26T21:09:59.781Z,14.13
2019-04-26T21:14:08.734Z,10.40
2019-04-26T21:18:16.835Z,16.27
2019-04-26T21:22:28.397Z,9.63
2019-04-26T21:26:56.090Z,13.30
2019-04-26T21:31:28.766Z,12.00
2019-04-26T21:36:11.191Z,13.30
2019-04-26T21:40:43.847Z,12.00
2019-04-26T21:44:54.820Z,18.17
2019-04-26T21:49:03.624Z,15.13
2019-04-26T21:53:13.240Z,9.83
2019-04-26T21:57:25.131Z,12.40
2019-04-26T22:01:33.086Z,9.37
2019-04-26T22:05:43.930Z,10.93
2019-04-26T22:10:25.997Z,13.17
2019-04-26T22:14:35.740Z,14.40
2019-04-26T22:19:01.137Z,9.83
2019-04-26T22:23:33.100Z,11.10
2019-04-26T22:27:43.679Z,14.13
2019-04-26T22:31:54.609Z,16.67
2019-04-26T22:36:01.496Z,9.63
2019-04-26T22:40:10.527Z,12.97
2019-04-26T22:44:31.317Z,12.13
2019-04-26T22:48:39.067Z,13.47
2019-04-26T22:52:51.591Z,9.97
2019-04-26T22:56:56.664Z,11.70
2019-04-26T23:01:06.216Z,11.77
2019-04-26T23:05:15.117Z,10.77
2019-04-26T23:09:23.814Z,9.47
2019-04-26T23:13:51.024Z,7.87
2019-04-26T23:18:16.555Z,10.70
2019-04-26T23:22:30.795Z,10.23
2019-04-26T23:26:37.441Z,9.93
2019-04-26T23:30:44.598Z,12.67
2019-04-26T23:34:53.520Z,8.03
2019-04-26T23:39:03.264Z,12.33
2019-04-26T23:43:13.063Z,8.27
2019-04-26T23:47:23.180Z,10.00
2019-04-26T23:51:30.476Z,7.83
2019-04-26T23:55:42.499Z,6.53
2019-04-26T23:59:51.038Z,5.90
